createdAt,value
2022-09-03T00:04:46.839Z,15.67
2022-09-03T00:09:49.470Z,15.64
2022-09-03T00:14:57.823Z,15.61
2022-09-03T00:20:00.404Z,15.6
2022-09-03T00:30:05.705Z,15.48
2022-09-03T00:35:10.960Z,15.44
2022-09-03T00:40:13.942Z,15.43
2022-09-03T00:45:16.651Z,15.34
2022-09-03T00:50:19.398Z,15.29
2022-09-03T00:55:21.940Z,15.18
2022-09-03T01:00:24.440Z,15.15
2022-09-03T01:05:27.042Z,15.14
2022-09-03T01:10:29.603Z,15.08
2022-09-03T01:15:32.322Z,15.02
2022-09-03T01:20:35.018Z,15.04
2022-09-03T01:25:40.339Z,15.04
2022-09-03T01:35:45.792Z,15.02
2022-09-03T01:50:53.480Z,14.92
2022-09-03T02:06:01.512Z,14.83
2022-09-03T02:16:09.720Z,14.69
2022-09-03T02:21:12.313Z,14.69
2022-09-03T02:26:15.135Z,14.68
2022-09-03T02:31:17.798Z,14.62
2022-09-03T02:46:25.841Z,14.58
2022-09-03T02:51:28.538Z,14.52
2022-09-03T02:56:31.199Z,14.45
2022-09-03T03:06:36.741Z,14.36
2022-09-03T03:11:39.570Z,14.33
2022-09-03T03:21:45.500Z,14.22
2022-09-03T03:26:48.204Z,14.18
2022-09-03T03:36:53.458Z,14.04
2022-09-03T03:46:58.778Z,13.96
2022-09-03T03:57:06.938Z,13.92
2022-09-03T04:02:09.454Z,13.92
2022-09-03T04:12:18.055Z,14.04
2022-09-03T04:22:24.234Z,14.06
2022-09-03T04:27:26.956Z,14.03
2022-09-03T04:42:34.728Z,13.98
2022-09-03T04:47:46.036Z,14.09
2022-09-03T04:52:48.823Z,14.25
2022-09-03T04:57:51.382Z,14.32
2022-09-03T05:02:54.243Z,14.43
2022-09-03T05:07:56.816Z,14.55
2022-09-03T05:12:59.307Z,14.69
2022-09-03T05:18:01.864Z,14.72
2022-09-03T05:23:07.096Z,14.96
2022-09-03T05:28:10.064Z,15.29
2022-09-03T05:33:12.847Z,15.57
2022-09-03T05:38:15.628Z,15.85
2022-09-03T05:43:18.055Z,15.59
2022-09-03T05:48:20.826Z,15.58
2022-09-03T05:53:23.741Z,15.47
2022-09-03T05:58:26.115Z,15.33
2022-09-03T06:03:29.323Z,15.69
2022-09-03T06:08:31.834Z,15.55
2022-09-03T06:13:34.391Z,15.68
2022-09-03T06:18:37.020Z,15.74
2022-09-03T06:23:40.977Z,15.8
2022-09-03T06:28:42.337Z,15.73
2022-09-03T06:33:44.912Z,16.01
2022-09-03T06:38:47.498Z,16.2
2022-09-03T06:43:50.187Z,16.14
2022-09-03T06:48:52.974Z,16.29
2022-09-03T06:53:55.707Z,16.58
2022-09-03T06:58:58.624Z,16.79
2022-09-03T07:04:01.380Z,16.96
2022-09-03T07:09:03.819Z,17
2022-09-03T07:14:06.492Z,17.36
2022-09-03T07:19:09.243Z,17.14
2022-09-03T07:24:11.708Z,17.33
2022-09-03T07:29:14.401Z,17.4
2022-09-03T07:34:17.330Z,17.31
2022-09-03T07:39:20.008Z,17.62
2022-09-03T07:44:22.854Z,17.91
2022-09-03T07:49:25.749Z,18.38
2022-09-03T07:54:28.545Z,18.29
2022-09-03T07:59:31.192Z,18.26
2022-09-03T08:04:33.931Z,18.32
2022-09-03T08:09:37.393Z,18.62
2022-09-03T08:14:39.957Z,19.03
2022-09-03T08:19:42.752Z,19.2
2022-09-03T08:24:45.680Z,19.73
2022-09-03T08:29:48.636Z,20.24
2022-09-03T08:34:51.276Z,20
2022-09-03T08:39:53.811Z,19.69
2022-09-03T08:44:56.636Z,19.95
2022-09-03T08:49:59.382Z,20.37
2022-09-03T08:55:01.849Z,19.82
2022-09-03T09:00:04.358Z,19.27
2022-09-03T09:05:09.105Z,19.69
2022-09-03T09:10:09.692Z,19.71
2022-09-03T09:15:12.658Z,19.68
2022-09-03T09:20:15.523Z,20.58
2022-09-03T09:25:18.500Z,20.33
2022-09-03T09:30:21.258Z,20.55
2022-09-03T09:35:23.929Z,20.46
2022-09-03T09:40:26.581Z,21.21
2022-09-03T09:45:29.362Z,20.74
2022-09-03T09:50:32.055Z,20.72
2022-09-03T09:55:34.895Z,21.41
2022-09-03T10:00:37.538Z,21.77
2022-09-03T10:05:40.257Z,21.8
2022-09-03T10:10:42.596Z,21.46
2022-09-03T10:15:45.257Z,21.34
2022-09-03T10:20:48.071Z,22.14
2022-09-03T10:25:50.751Z,22.09
2022-09-03T10:30:53.389Z,22.64
2022-09-03T10:35:56.311Z,21.79
2022-09-03T10:40:58.867Z,22.4
2022-09-03T10:46:01.481Z,22.52
2022-09-03T10:51:03.715Z,22.38
2022-09-03T10:56:06.220Z,22.13
2022-09-03T11:01:09.004Z,22.93
2022-09-03T11:06:11.565Z,22.9
2022-09-03T11:11:14.302Z,23.46
2022-09-03T11:16:16.845Z,23.03
2022-09-03T11:21:19.418Z,22.47
2022-09-03T11:26:22.077Z,22.28
2022-09-03T11:31:24.677Z,21.98
2022-09-03T11:36:27.530Z,22.93
2022-09-03T11:41:30.363Z,23.91
2022-09-03T11:46:32.850Z,23.03
2022-09-03T11:51:35.458Z,23.04
2022-09-03T11:56:37.949Z,22.48
2022-09-03T12:01:40.659Z,23.06
2022-09-03T12:06:43.554Z,22.7
2022-09-03T12:11:46.431Z,23.34
2022-09-03T12:16:49.426Z,23.55
2022-09-03T12:21:52.035Z,23.73
2022-09-03T12:26:54.924Z,24.16
2022-09-03T12:31:57.709Z,24.34
2022-09-03T12:37:00.563Z,24.56
2022-09-03T12:42:03.482Z,24.1
2022-09-03T12:52:08.687Z,23.77
2022-09-03T12:57:11.261Z,23.39
2022-09-03T13:02:14.426Z,23.05
2022-09-03T13:07:16.768Z,23.04
2022-09-03T13:12:20.749Z,24.03
2022-09-03T13:17:23.402Z,23.67
2022-09-03T13:22:25.962Z,23.37
2022-09-03T13:27:33.870Z,23.32
2022-09-03T13:32:36.412Z,23.42
2022-09-03T13:37:39.265Z,23.45
2022-09-03T13:52:47.512Z,23.02
2022-09-03T13:57:50.131Z,23.02
2022-09-03T14:02:52.601Z,23.21
2022-09-03T14:07:55.273Z,23.18
2022-09-03T14:12:58.063Z,23.17
2022-09-03T14:18:00.739Z,23.07
2022-09-03T14:23:03.517Z,23.37
2022-09-03T14:28:06.161Z,23.35
2022-09-03T14:33:08.818Z,22.92
2022-09-03T14:38:11.620Z,23.24
2022-09-03T14:43:14.460Z,23.36
2022-09-03T14:48:17.249Z,22.94
2022-09-03T14:53:19.926Z,22.76
2022-09-03T14:58:22.687Z,22.91
2022-09-03T15:03:25.476Z,23.33
2022-09-03T15:08:28.176Z,23.7
2022-09-03T15:13:31.216Z,23.57
2022-09-03T15:18:33.830Z,23.5
2022-09-03T15:23:36.594Z,23.21
2022-09-03T15:33:41.901Z,22.64
2022-09-03T15:38:44.939Z,22.6
2022-09-03T15:43:47.469Z,22.53
2022-09-03T15:48:50.270Z,22.41
2022-09-03T15:53:52.807Z,22.25
2022-09-03T15:58:55.267Z,22.16
2022-09-03T16:03:57.928Z,22.06
2022-09-03T16:09:03.494Z,21.98
2022-09-03T16:14:06.182Z,21.94
2022-09-03T16:19:09.297Z,22.16
2022-09-03T16:24:12.087Z,22.28
2022-09-03T16:34:18.926Z,22.33
2022-09-03T16:39:20.243Z,22.04
2022-09-03T16:44:22.877Z,22.08
2022-09-03T16:49:25.713Z,21.91
2022-09-03T16:54:29.320Z,21.95
2022-09-03T16:59:31.956Z,21.82
2022-09-03T17:04:34.700Z,21.72
2022-09-03T17:09:37.436Z,21.54
2022-09-03T17:14:40.075Z,21.46
2022-09-03T17:19:41.983Z,21.36
2022-09-03T17:24:44.519Z,21.27
2022-09-03T17:29:47.094Z,21.12
2022-09-03T17:34:49.770Z,21
2022-09-03T17:39:52.316Z,20.91
2022-09-03T17:44:54.916Z,20.79
2022-09-03T17:49:57.562Z,20.75
2022-09-03T17:55:00.395Z,20.7
2022-09-03T18:00:02.955Z,20.69
2022-09-03T18:05:05.466Z,20.65
2022-09-03T18:10:08.247Z,20.59
2022-09-03T18:15:10.836Z,20.54
2022-09-03T18:20:13.353Z,20.03
2022-09-03T18:25:15.881Z,19.82
2022-09-03T18:35:23.851Z,19.77
2022-09-03T18:40:26.534Z,19.74
2022-09-03T18:45:42.211Z,19.71
2022-09-03T18:50:32.042Z,19.87
2022-09-03T18:55:34.669Z,19.86
2022-09-03T19:00:37.413Z,19.78
2022-09-03T19:05:40.151Z,19.71
2022-09-03T19:10:42.875Z,19.72
2022-09-03T19:15:45.793Z,19.71
2022-09-03T19:20:48.366Z,19.59
2022-09-03T19:25:50.958Z,19.57
2022-09-03T19:30:53.686Z,19.56
2022-09-03T19:35:56.558Z,19.53
2022-09-03T19:40:59.072Z,19.52
2022-09-03T19:46:01.967Z,19.51
2022-09-03T19:51:04.754Z,19.63
2022-09-03T19:56:07.980Z,19.57
2022-09-03T20:01:10.311Z,19.59
2022-09-03T20:06:13.145Z,19.57
2022-09-03T20:11:15.794Z,19.59
2022-09-03T20:16:18.542Z,19.59
2022-09-03T20:21:21.228Z,19.52
2022-09-03T20:26:23.861Z,19.53
2022-09-03T20:31:26.553Z,19.54
2022-09-03T20:36:29.229Z,19.52
2022-09-03T20:41:31.711Z,19.51
2022-09-03T20:46:34.563Z,19.53
2022-09-03T20:51:37.089Z,19.42
2022-09-03T20:56:39.655Z,19.34
2022-09-03T21:01:42.334Z,19.29
2022-09-03T21:06:44.914Z,19.26
2022-09-03T21:11:47.633Z,19.26
2022-09-03T21:16:50.545Z,19.22
2022-09-03T21:21:53.138Z,19.24
2022-09-03T21:26:55.607Z,19.17
2022-09-03T21:31:58.447Z,19.13
2022-09-03T21:37:01.101Z,19.17
2022-09-03T21:42:03.871Z,19.03
2022-09-03T21:47:06.495Z,19.02
2022-09-03T21:52:09.094Z,18.97
2022-09-03T21:57:11.785Z,18.98
2022-09-03T22:02:14.510Z,18.98
2022-09-03T22:07:17.388Z,18.91
2022-09-03T22:12:20.082Z,18.85
2022-09-03T22:17:23.018Z,18.76
2022-09-03T22:22:25.576Z,18.74
2022-09-03T22:27:28.172Z,18.79
2022-09-03T22:32:30.782Z,18.75
2022-09-03T22:37:33.489Z,18.68
2022-09-03T22:42:36.461Z,18.64
2022-09-03T22:47:39.079Z,18.54
2022-09-03T22:52:41.472Z,18.44
2022-09-03T22:57:44.182Z,18.29
2022-09-03T23:02:46.651Z,18.24
2022-09-03T23:07:49.610Z,18.13
2022-09-03T23:12:52.372Z,18.07
2022-09-03T23:17:55.082Z,18.04
2022-09-03T23:22:57.949Z,17.99
2022-09-03T23:28:00.657Z,17.95
2022-09-03T23:33:03.083Z,17.86
2022-09-03T23:38:05.611Z,17.83
2022-09-03T23:43:09.851Z,17.75
2022-09-03T23:48:49.457Z,17.73
2022-09-03T23:53:52.272Z,17.66
2022-09-03T23:58:54.946Z,17.59
